createdAt,value
2022-10-20T00:00:39.760Z,101189.53
2022-10-20T00:03:09.285Z,101178.50
2022-10-20T00:05:40.192Z,101180.34
2022-10-20T00:08:09.562Z,101183.47
2022-10-20T00:10:37.536Z,101181.50
2022-10-20T00:13:05.630Z,101180.03
2022-10-20T00:15:33.709Z,101178.06
2022-10-20T00:18:01.667Z,101176.19
2022-10-20T00:20:29.649Z,101174.19
2022-10-20T00:22:57.629Z,101165.63
2022-10-20T00:25:27.046Z,101166.91
2022-10-20T00:27:54.996Z,101176.31
2022-10-20T00:30:25.034Z,101178.91
2022-10-20T00:32:53.828Z,101172.47
2022-10-20T00:35:21.829Z,101176.63
2022-10-20T00:37:49.812Z,101179.66
2022-10-20T00:40:18.030Z,101173.19
2022-10-20T00:42:47.923Z,101171.63
2022-10-20T00:45:17.307Z,101182.06
2022-10-20T00:47:48.801Z,101179.88
2022-10-20T00:50:20.384Z,101179.25
2022-10-20T00:52:49.748Z,101185.41
2022-10-20T00:55:21.734Z,101180.84
2022-10-20T00:57:53.233Z,101184.53
2022-10-20T01:00:21.846Z,101183.94
2022-10-20T01:02:51.506Z,101181.13
2022-10-20T01:05:20.001Z,101175.78
2022-10-20T01:07:48.020Z,101174.00
2022-10-20T01:10:16.934Z,101171.84
2022-10-20T01:12:52.912Z,101171.22
2022-10-20T01:15:32.772Z,101171.97
2022-10-20T01:18:13.570Z,101160.38
2022-10-20T01:21:14.920Z,101163.16
2022-10-20T01:23:56.682Z,101165.47
2022-10-20T01:26:54.120Z,101164.47
2022-10-20T01:29:28.643Z,101176.16
2022-10-20T01:32:06.124Z,101163.44
2022-10-20T01:34:40.961Z,101170.28
2022-10-20T01:37:28.299Z,101175.84
2022-10-20T01:40:13.309Z,101174.81
2022-10-20T01:42:43.518Z,101180.38
2022-10-20T01:45:16.144Z,101184.91
2022-10-20T01:47:46.300Z,101184.44
2022-10-20T01:50:16.863Z,101187.22
2022-10-20T01:52:44.795Z,101185.72
2022-10-20T01:55:14.846Z,101180.19
2022-10-20T01:57:55.269Z,101178.59
2022-10-20T02:00:25.265Z,101196.16
2022-10-20T02:03:11.727Z,101189.72
2022-10-20T02:05:54.061Z,101194.41
2022-10-20T02:08:29.557Z,101190.25
2022-10-20T02:11:00.319Z,101192.75
2022-10-20T02:13:31.671Z,101193.03
2022-10-20T02:16:05.895Z,101199.41
2022-10-20T02:18:39.957Z,101199.81
2022-10-20T02:21:08.688Z,101197.22
2022-10-20T02:23:39.542Z,101193.91
2022-10-20T02:26:09.764Z,101197.75
2022-10-20T02:28:41.942Z,101202.31
2022-10-20T02:31:12.130Z,101200.72
2022-10-20T02:33:41.181Z,101197.00
2022-10-20T02:36:16.769Z,101190.41
2022-10-20T02:38:44.849Z,101214.03
2022-10-20T02:41:12.839Z,101211.09
2022-10-20T02:43:40.807Z,101214.31
2022-10-20T02:46:08.893Z,101213.84
2022-10-20T02:48:38.391Z,101218.66
2022-10-20T02:51:07.450Z,101221.47
2022-10-20T02:53:35.471Z,101225.19
2022-10-20T02:56:03.370Z,101224.22
2022-10-20T02:58:31.381Z,101226.34
2022-10-20T03:00:59.413Z,101222.91
2022-10-20T03:03:27.584Z,101233.28
2022-10-20T03:05:57.004Z,101224.47
2022-10-20T03:08:25.058Z,101231.41
2022-10-20T03:10:53.017Z,101235.56
2022-10-20T03:13:20.925Z,101230.91
2022-10-20T03:15:48.946Z,101242.22
2022-10-20T03:18:16.901Z,101242.72
2022-10-20T03:20:45.029Z,101249.84
2022-10-20T03:23:17.676Z,101247.03
2022-10-20T03:25:48.032Z,101256.75
2022-10-20T03:28:15.982Z,101262.88
2022-10-20T03:30:46.438Z,101267.81
2022-10-20T03:33:14.390Z,101254.91
2022-10-20T03:35:42.287Z,101266.69
2022-10-20T03:38:10.270Z,101264.59
2022-10-20T03:40:39.593Z,101265.97
2022-10-20T03:43:07.515Z,101271.38
2022-10-20T03:45:35.563Z,101275.94
2022-10-20T03:48:03.758Z,101257.81
2022-10-20T03:50:31.735Z,101269.97
2022-10-20T03:53:00.040Z,101279.56
2022-10-20T03:55:27.967Z,101277.09
2022-10-20T03:57:57.416Z,101277.09
2022-10-20T04:00:25.420Z,101285.81
2022-10-20T04:02:53.769Z,101281.72
2022-10-20T04:05:22.392Z,101284.44
2022-10-20T04:07:50.302Z,101291.06
2022-10-20T04:10:18.850Z,101294.13
2022-10-20T04:12:46.818Z,101290.28
2022-10-20T04:15:18.477Z,101293.91
2022-10-20T04:17:46.550Z,101288.19
2022-10-20T04:20:14.500Z,101282.13
2022-10-20T04:22:42.421Z,101281.88
2022-10-20T04:25:12.097Z,101280.50
2022-10-20T04:27:40.124Z,101279.66
2022-10-20T04:30:09.433Z,101279.88
2022-10-20T04:32:38.790Z,101285.06
2022-10-20T04:35:07.593Z,101299.16
2022-10-20T04:37:35.982Z,101281.72
2022-10-20T04:40:04.858Z,101289.75
2022-10-20T04:42:33.189Z,101295.16
2022-10-20T04:45:01.138Z,101288.50
2022-10-20T04:47:33.469Z,101292.31
2022-10-20T04:50:03.002Z,101287.53
2022-10-20T04:52:31.008Z,101294.31
2022-10-20T04:54:58.992Z,101292.47
2022-10-20T04:57:27.176Z,101295.91
2022-10-20T04:59:55.153Z,101291.84
2022-10-20T05:02:23.100Z,101293.34
2022-10-20T05:04:50.967Z,101298.84
2022-10-20T05:07:20.285Z,101306.59
2022-10-20T05:09:49.428Z,101305.97
2022-10-20T05:12:17.149Z,101307.91
2022-10-20T05:14:45.121Z,101311.06
2022-10-20T05:17:13.051Z,101321.13
2022-10-20T05:19:40.992Z,101321.66
2022-10-20T05:22:08.908Z,101313.31
2022-10-20T05:24:38.582Z,101331.88
2022-10-20T05:27:06.532Z,101320.19
2022-10-20T05:29:34.579Z,101324.41
2022-10-20T05:32:02.594Z,101334.00
2022-10-20T05:34:30.719Z,101337.94
2022-10-20T05:36:58.693Z,101344.81
2022-10-20T05:39:27.036Z,101355.63
2022-10-20T05:41:56.380Z,101361.19
2022-10-20T05:44:24.491Z,101360.03
2022-10-20T05:46:52.389Z,101361.50
2022-10-20T05:49:20.317Z,101356.00
2022-10-20T05:51:48.792Z,101359.56
2022-10-20T05:54:17.152Z,101361.66
2022-10-20T05:56:45.482Z,101369.44
2022-10-20T05:59:15.087Z,101367.97
2022-10-20T06:01:49.038Z,101369.78
2022-10-20T06:04:19.018Z,101379.03
2022-10-20T06:06:49.003Z,101387.53
2022-10-20T06:09:17.715Z,101390.47
2022-10-20T06:11:45.637Z,101387.84
2022-10-20T06:14:15.432Z,101392.94
2022-10-20T06:16:43.400Z,101404.38
2022-10-20T06:19:11.689Z,101393.22
2022-10-20T06:21:39.726Z,101410.94
2022-10-20T06:24:08.253Z,101409.38
2022-10-20T06:26:37.481Z,101415.84
2022-10-20T06:29:05.845Z,101422.25
2022-10-20T06:31:38.976Z,101426.38
2022-10-20T06:34:08.418Z,101429.28
2022-10-20T06:36:37.078Z,101433.97
2022-10-20T06:39:07.547Z,101437.06
2022-10-20T06:41:35.726Z,101444.88
2022-10-20T06:44:03.998Z,101443.81
2022-10-20T06:46:33.973Z,101443.69
2022-10-20T06:49:03.892Z,101444.22
2022-10-20T06:51:32.981Z,101452.75
2022-10-20T06:54:01.911Z,101456.81
2022-10-20T06:56:31.432Z,101465.38
2022-10-20T06:59:00.492Z,101445.38
2022-10-20T07:01:30.211Z,101445.53
2022-10-20T07:04:00.292Z,101450.41
2022-10-20T07:06:31.176Z,101454.50
2022-10-20T07:09:00.096Z,101444.34
2022-10-20T07:11:30.283Z,101452.34
2022-10-20T07:14:00.081Z,101443.09
2022-10-20T07:16:29.106Z,101443.53
2022-10-20T07:18:57.932Z,101457.63
2022-10-20T07:21:32.355Z,101452.97
2022-10-20T07:24:09.761Z,101452.75
2022-10-20T07:26:41.586Z,101451.75
2022-10-20T07:29:10.643Z,101461.94
2022-10-20T07:31:42.628Z,101464.94
2022-10-20T07:34:24.884Z,101463.00
2022-10-20T07:36:55.247Z,101460.47
2022-10-20T07:39:25.389Z,101461.81
2022-10-20T07:41:56.347Z,101461.22
2022-10-20T07:44:24.647Z,101463.91
2022-10-20T07:46:52.632Z,101463.31
2022-10-20T07:49:43.404Z,101456.66
2022-10-20T07:52:10.700Z,101452.59
2022-10-20T07:54:40.016Z,101450.91
2022-10-20T07:57:10.509Z,101449.66
2022-10-20T07:59:42.594Z,101457.44
2022-10-20T08:02:13.595Z,101454.97
2022-10-20T08:04:44.806Z,101453.03
2022-10-20T08:07:16.591Z,101460.13
2022-10-20T08:09:47.886Z,101458.09
2022-10-20T08:12:15.923Z,101458.63
2022-10-20T08:17:46.865Z,101455.00
2022-10-20T08:20:17.106Z,101457.63
2022-10-20T08:22:47.361Z,101457.56
2022-10-20T08:25:18.047Z,101464.03
2022-10-20T08:27:51.262Z,101461.13
2022-10-20T08:30:23.783Z,101457.41
2022-10-20T08:32:52.715Z,101451.00
2022-10-20T08:35:20.910Z,101457.81
2022-10-20T08:37:48.988Z,101462.97
2022-10-20T08:40:21.485Z,101461.78
2022-10-20T08:42:50.233Z,101471.75
2022-10-20T08:45:21.418Z,101458.31
2022-10-20T08:47:51.869Z,101468.16
2022-10-20T08:50:21.911Z,101460.41
2022-10-20T08:52:54.231Z,101465.28
2022-10-20T08:55:29.299Z,101468.00
2022-10-20T08:58:01.487Z,101471.44
2022-10-20T09:00:31.535Z,101467.94
2022-10-20T09:03:11.737Z,101471.06
2022-10-20T09:05:43.749Z,101470.53
2022-10-20T09:08:11.815Z,101468.94
2022-10-20T09:10:46.597Z,101469.38
2022-10-20T09:13:21.378Z,101463.63
2022-10-20T09:15:50.153Z,101472.97
2022-10-20T09:18:18.455Z,101475.75
2022-10-20T09:20:51.137Z,101481.72
2022-10-20T09:23:40.000Z,101479.38
2022-10-20T09:26:30.435Z,101487.97
2022-10-20T09:29:15.393Z,101473.81
2022-10-20T09:31:45.665Z,101482.16
2022-10-20T09:34:25.001Z,101482.97
2022-10-20T09:36:57.193Z,101485.53
2022-10-20T09:39:28.904Z,101477.66
2022-10-20T09:42:05.813Z,101488.50
2022-10-20T09:44:38.336Z,101488.00
2022-10-20T09:47:06.316Z,101489.72
2022-10-20T09:49:38.102Z,101482.78
2022-10-20T09:52:18.288Z,101486.31
2022-10-20T09:54:51.001Z,101483.44
2022-10-20T09:57:22.215Z,101486.94
2022-10-20T09:59:53.893Z,101478.47
2022-10-20T10:02:33.240Z,101486.97
2022-10-20T10:05:16.326Z,101480.69
2022-10-20T10:07:44.282Z,101470.16
2022-10-20T10:10:27.569Z,101479.66
2022-10-20T10:13:00.858Z,101473.41
2022-10-20T10:15:31.677Z,101467.75
2022-10-20T10:18:00.952Z,101461.19
2022-10-20T10:20:39.310Z,101466.94
2022-10-20T10:23:23.324Z,101458.91
2022-10-20T10:25:52.343Z,101465.28
2022-10-20T10:28:29.864Z,101448.50
2022-10-20T10:31:25.349Z,101452.47
2022-10-20T10:33:58.547Z,101452.22
2022-10-20T10:36:35.458Z,101454.81
2022-10-20T10:39:05.071Z,101450.94
2022-10-20T10:41:59.119Z,101432.19
2022-10-20T10:44:40.861Z,101434.25
2022-10-20T10:47:23.743Z,101431.16
2022-10-20T10:50:02.333Z,101431.19
2022-10-20T10:52:43.208Z,101428.25
2022-10-20T10:55:43.629Z,101408.16
2022-10-20T10:58:21.000Z,101418.44
2022-10-20T11:01:07.307Z,101417.41
2022-10-20T11:03:48.994Z,101408.28
2022-10-20T11:06:28.838Z,101416.34
2022-10-20T11:09:08.176Z,101414.78
2022-10-20T11:11:45.223Z,101399.88
2022-10-20T11:14:24.573Z,101410.91
2022-10-20T11:17:04.251Z,101407.38
2022-10-20T11:19:48.188Z,101407.38
2022-10-20T11:22:26.852Z,101401.38
2022-10-20T11:25:06.295Z,101399.56
2022-10-20T11:27:37.982Z,101395.34
2022-10-20T11:30:16.401Z,101393.63
2022-10-20T11:32:48.642Z,101391.88
2022-10-20T11:35:25.357Z,101384.25
2022-10-20T11:37:58.222Z,101384.91
2022-10-20T11:40:31.710Z,101378.63
2022-10-20T11:43:10.203Z,101374.16
2022-10-20T11:45:46.036Z,101369.34
2022-10-20T11:48:21.025Z,101380.53
2022-10-20T11:51:07.854Z,101371.03
2022-10-20T11:53:45.731Z,101367.50
2022-10-20T11:56:29.287Z,101363.38
2022-10-20T11:59:36.424Z,101354.06
2022-10-20T12:02:29.571Z,101356.34
2022-10-20T12:05:32.881Z,101350.91
2022-10-20T12:08:36.167Z,101350.09
2022-10-20T12:11:10.740Z,101352.25
2022-10-20T12:13:47.403Z,101348.03
2022-10-20T12:16:48.519Z,101336.66
2022-10-20T12:19:18.727Z,101342.56
2022-10-20T12:21:56.221Z,101333.72
2022-10-20T12:24:35.377Z,101323.47
2022-10-20T12:27:25.781Z,101325.28
2022-10-20T12:29:57.844Z,101325.81
2022-10-20T12:32:53.727Z,101318.03
2022-10-20T12:35:31.522Z,101320.66
2022-10-20T12:38:02.481Z,101315.53
2022-10-20T12:40:41.572Z,101324.22
2022-10-20T12:43:25.660Z,101316.50
2022-10-20T12:45:59.497Z,101320.72
2022-10-20T12:48:28.092Z,101314.56
2022-10-20T12:51:05.615Z,101311.94
2022-10-20T12:53:34.292Z,101312.72
2022-10-20T12:56:08.202Z,101303.63
2022-10-20T12:58:38.129Z,101295.53
2022-10-20T13:01:12.350Z,101299.78
2022-10-20T13:03:48.415Z,101306.44
2022-10-20T13:06:43.935Z,101302.16
2022-10-20T13:09:22.156Z,101307.13
2022-10-20T13:12:01.791Z,101295.16
2022-10-20T13:14:36.973Z,101294.44
2022-10-20T13:17:20.151Z,101296.00
2022-10-20T13:20:00.386Z,101295.69
2022-10-20T13:22:43.115Z,101302.31
2022-10-20T13:25:20.757Z,101298.97
2022-10-20T13:27:51.271Z,101294.88
2022-10-20T13:30:23.642Z,101296.97
2022-10-20T13:33:18.250Z,101298.91
2022-10-20T13:35:58.293Z,101289.19
2022-10-20T13:38:33.395Z,101291.72
2022-10-20T13:41:07.820Z,101297.78
2022-10-20T13:43:47.954Z,101293.69
2022-10-20T13:46:35.491Z,101299.16
2022-10-20T13:49:19.241Z,101297.09
2022-10-20T13:51:52.446Z,101304.34
2022-10-20T13:54:25.350Z,101295.41
2022-10-20T13:56:54.684Z,101297.84
2022-10-20T13:59:25.947Z,101294.03
2022-10-20T14:01:57.244Z,101297.06
2022-10-20T14:04:26.865Z,101290.19
2022-10-20T14:06:55.301Z,101282.31
2022-10-20T14:09:25.151Z,101285.50
2022-10-20T14:11:57.216Z,101288.28
2022-10-20T14:14:28.422Z,101282.91
2022-10-20T14:16:59.454Z,101289.19
2022-10-20T14:19:28.844Z,101295.38
2022-10-20T14:21:59.313Z,101293.13
2022-10-20T14:24:33.990Z,101285.63
2022-10-20T14:27:04.242Z,101289.97
2022-10-20T14:29:36.078Z,101286.31
2022-10-20T14:32:04.364Z,101283.47
2022-10-20T14:34:35.965Z,101277.75
2022-10-20T14:37:05.806Z,101281.13
2022-10-20T14:39:39.442Z,101282.41
2022-10-20T14:42:21.746Z,101282.72
2022-10-20T14:44:53.024Z,101279.59
2022-10-20T14:47:22.420Z,101276.94
2022-10-20T14:49:52.852Z,101279.34
2022-10-20T14:52:24.243Z,101272.09
2022-10-20T14:54:52.648Z,101275.78
2022-10-20T14:57:44.467Z,101276.34
2022-10-20T15:00:29.566Z,101273.09
2022-10-20T15:02:58.843Z,101269.94
2022-10-20T15:05:36.213Z,101269.53
2022-10-20T15:08:18.863Z,101262.09
2022-10-20T15:10:46.966Z,101254.81
2022-10-20T15:13:28.395Z,101258.81
2022-10-20T15:15:59.078Z,101262.16
2022-10-20T15:18:28.615Z,101258.88
2022-10-20T15:20:57.545Z,101259.78
2022-10-20T15:23:27.309Z,101263.50
2022-10-20T15:25:58.837Z,101274.59
2022-10-20T15:28:38.438Z,101270.78
2022-10-20T15:31:19.771Z,101257.94
2022-10-20T15:33:48.061Z,101251.72
2022-10-20T15:36:20.675Z,101250.94
2022-10-20T15:38:48.763Z,101256.22
2022-10-20T15:41:18.228Z,101255.88
2022-10-20T15:43:46.541Z,101262.16
2022-10-20T15:46:17.066Z,101269.06
2022-10-20T15:48:45.339Z,101259.69
2022-10-20T15:51:17.305Z,101266.41
2022-10-20T15:53:46.045Z,101262.13
2022-10-20T15:56:13.925Z,101266.78
2022-10-20T15:58:41.892Z,101269.88
2022-10-20T16:01:12.609Z,101269.91
2022-10-20T16:03:43.401Z,101263.19
2022-10-20T16:06:13.439Z,101268.69
2022-10-20T16:08:42.182Z,101268.69
2022-10-20T16:11:11.521Z,101269.22
2022-10-20T16:13:39.692Z,101276.16
2022-10-20T16:16:09.508Z,101279.09
2022-10-20T16:18:37.524Z,101273.31
2022-10-20T16:21:07.740Z,101268.22
2022-10-20T16:23:40.617Z,101268.34
2022-10-20T16:26:13.223Z,101271.91
2022-10-20T16:28:41.809Z,101274.50
2022-10-20T16:31:11.531Z,101275.38
2022-10-20T16:33:39.519Z,101275.56
2022-10-20T16:36:11.466Z,101281.06
2022-10-20T16:38:40.477Z,101285.19
2022-10-20T16:41:10.643Z,101277.78
2022-10-20T16:43:39.774Z,101277.63
2022-10-20T16:46:09.100Z,101273.69
2022-10-20T16:48:39.013Z,101275.91
2022-10-20T16:51:11.642Z,101277.97
2022-10-20T16:53:40.227Z,101281.72
2022-10-20T16:56:09.124Z,101288.59
2022-10-20T16:58:37.158Z,101292.13
2022-10-20T17:01:08.504Z,101295.16
2022-10-20T17:03:36.789Z,101299.59
2022-10-20T17:06:07.028Z,101295.25
2022-10-20T17:08:37.880Z,101293.75
2022-10-20T17:11:08.002Z,101301.09
2022-10-20T17:13:37.258Z,101301.06
2022-10-20T17:16:06.710Z,101294.56
2022-10-20T17:18:34.809Z,101304.91
2022-10-20T17:21:03.013Z,101291.03
2022-10-20T17:23:33.996Z,101307.00
2022-10-20T17:26:07.266Z,101298.53
2022-10-20T17:28:37.150Z,101309.47
2022-10-20T17:31:07.320Z,101309.47
2022-10-20T17:33:35.862Z,101319.25
2022-10-20T17:36:03.844Z,101314.31
2022-10-20T17:38:32.060Z,101315.41
2022-10-20T17:41:05.782Z,101309.66
2022-10-20T17:43:34.406Z,101311.63
2022-10-20T17:46:04.604Z,101312.50
2022-10-20T17:48:33.277Z,101310.09
2022-10-20T17:51:02.758Z,101318.66
2022-10-20T17:53:32.458Z,101322.47
2022-10-20T17:56:02.343Z,101319.22
2022-10-20T17:58:31.845Z,101320.00
2022-10-20T18:01:08.800Z,101318.44
2022-10-20T18:03:36.968Z,101324.75
2022-10-20T18:06:09.494Z,101322.69
2022-10-20T18:08:37.570Z,101317.41
2022-10-20T18:11:09.530Z,101317.56
2022-10-20T18:13:40.457Z,101310.06
2022-10-20T18:16:09.262Z,101310.59
2022-10-20T18:18:37.494Z,101316.97
2022-10-20T18:21:06.384Z,101314.16
2022-10-20T18:23:36.539Z,101311.75
2022-10-20T18:26:09.285Z,101309.38
2022-10-20T18:28:41.949Z,101313.88
2022-10-20T18:31:17.269Z,101316.44
2022-10-20T18:33:45.828Z,101317.22
2022-10-20T18:36:15.838Z,101314.25
2022-10-20T18:38:45.373Z,101310.50
2022-10-20T18:41:15.481Z,101316.63
2022-10-20T18:43:46.466Z,101315.13
2022-10-20T18:46:15.846Z,101314.00
2022-10-20T18:48:44.165Z,101316.28
2022-10-20T18:51:13.814Z,101313.75
2022-10-20T18:53:43.490Z,101319.78
2022-10-20T18:56:14.805Z,101301.47
2022-10-20T18:58:50.360Z,101314.69
2022-10-20T19:01:21.075Z,101316.97
2022-10-20T19:03:50.553Z,101307.94
2022-10-20T19:06:21.932Z,101304.97
2022-10-20T19:08:52.805Z,101315.25
2022-10-20T19:11:21.998Z,101314.81
2022-10-20T19:13:51.325Z,101312.38
2022-10-20T19:16:21.236Z,101302.78
2022-10-20T19:18:51.577Z,101311.69
2022-10-20T19:23:52.296Z,101324.31
2022-10-20T19:26:22.104Z,101326.28
2022-10-20T19:28:58.436Z,101319.41
2022-10-20T19:31:29.615Z,101318.28
2022-10-20T19:33:59.655Z,101317.53
2022-10-20T19:36:29.013Z,101312.97
2022-10-20T19:38:57.613Z,101325.72
2022-10-20T19:41:25.655Z,101325.56
2022-10-20T19:43:55.074Z,101328.72
2022-10-20T19:46:23.925Z,101333.00
2022-10-20T19:48:52.140Z,101339.31
2022-10-20T19:51:21.113Z,101344.47
2022-10-20T19:53:49.732Z,101342.75
2022-10-20T19:56:18.007Z,101335.28
2022-10-20T19:58:48.401Z,101339.88
2022-10-20T20:01:18.006Z,101344.31
2022-10-20T20:03:46.324Z,101337.00
2022-10-20T20:06:17.196Z,101343.97
2022-10-20T20:08:46.685Z,101340.56
2022-10-20T20:11:23.679Z,101340.69
2022-10-20T20:13:52.040Z,101337.38
2022-10-20T20:16:21.886Z,101332.91
2022-10-20T20:18:50.172Z,101331.09
2022-10-20T20:21:18.757Z,101343.19
2022-10-20T20:23:58.903Z,101344.63
2022-10-20T20:26:28.140Z,101341.44
2022-10-20T20:28:57.159Z,101348.00
2022-10-20T20:31:27.993Z,101347.56
2022-10-20T20:33:57.763Z,101348.84
2022-10-20T20:36:27.752Z,101341.09
2022-10-20T20:38:57.863Z,101349.66
2022-10-20T20:41:27.632Z,101347.72
2022-10-20T20:43:55.800Z,101347.91
2022-10-20T20:46:29.254Z,101342.19
2022-10-20T20:48:57.648Z,101341.91
2022-10-20T20:51:27.121Z,101346.63
2022-10-20T20:53:55.033Z,101342.19
2022-10-20T20:56:24.619Z,101345.06
2022-10-20T20:58:55.640Z,101348.31
2022-10-20T21:01:24.781Z,101340.06
2022-10-20T21:03:55.792Z,101345.75
2022-10-20T21:06:33.139Z,101346.03
2022-10-20T21:09:02.553Z,101349.72
2022-10-20T21:11:30.946Z,101349.13
2022-10-20T21:13:59.905Z,101350.28
2022-10-20T21:16:29.288Z,101346.97
2022-10-20T21:19:00.419Z,101348.41
2022-10-20T21:21:30.386Z,101344.84
2022-10-20T21:23:59.238Z,101347.72
2022-10-20T21:26:30.092Z,101347.72
2022-10-20T21:28:58.120Z,101335.06
2022-10-20T21:31:27.938Z,101338.06
2022-10-20T21:33:58.979Z,101339.03
2022-10-20T21:36:29.585Z,101337.72
2022-10-20T21:38:57.578Z,101334.47
2022-10-20T21:41:27.143Z,101337.28
2022-10-20T21:43:56.492Z,101333.50
2022-10-20T21:46:27.222Z,101330.78
2022-10-20T21:48:58.928Z,101329.19
2022-10-20T21:51:30.199Z,101326.13
2022-10-20T21:53:59.863Z,101320.22
2022-10-20T21:56:28.325Z,101320.50
2022-10-20T21:58:56.840Z,101317.84
2022-10-20T22:01:26.703Z,101309.84
2022-10-20T22:03:55.273Z,101318.13
2022-10-20T22:06:24.947Z,101313.22
2022-10-20T22:08:56.453Z,101312.97
2022-10-20T22:11:26.653Z,101307.06
2022-10-20T22:13:55.247Z,101316.94
2022-10-20T22:16:25.119Z,101309.28
2022-10-20T22:18:56.285Z,101298.00
2022-10-20T22:21:24.245Z,101303.97
2022-10-20T22:23:56.047Z,101303.06
2022-10-20T22:26:25.743Z,101295.94
2022-10-20T22:28:54.235Z,101301.38
2022-10-20T22:31:23.023Z,101296.22
2022-10-20T22:33:51.687Z,101299.06
2022-10-20T22:36:20.613Z,101295.63
2022-10-20T22:38:48.659Z,101293.66
2022-10-20T22:41:18.560Z,101294.03
2022-10-20T22:43:46.583Z,101291.69
2022-10-20T22:46:15.825Z,101277.53
2022-10-20T22:48:44.165Z,101283.81
2022-10-20T22:51:12.401Z,101280.63
2022-10-20T22:53:41.308Z,101278.91
2022-10-20T22:56:12.151Z,101281.63
2022-10-20T22:58:42.242Z,101280.56
2022-10-20T23:01:11.600Z,101278.97
2022-10-20T23:03:39.981Z,101290.56
2022-10-20T23:06:09.785Z,101287.38
2022-10-20T23:08:41.870Z,101283.00
2022-10-20T23:11:10.369Z,101286.00
2022-10-20T23:13:38.346Z,101284.88
2022-10-20T23:16:08.332Z,101288.31
2022-10-20T23:18:36.641Z,101296.31
2022-10-20T23:21:05.313Z,101285.94
2022-10-20T23:23:33.509Z,101289.03
2022-10-20T23:26:03.818Z,101288.09
2022-10-20T23:28:33.020Z,101284.19
2022-10-20T23:31:10.372Z,101288.16
2022-10-20T23:33:38.801Z,101285.19
2022-10-20T23:36:07.365Z,101279.66
2022-10-20T23:38:35.753Z,101278.56
2022-10-20T23:41:04.138Z,101275.97
2022-10-20T23:43:32.416Z,101275.59
2022-10-20T23:46:00.407Z,101282.50
2022-10-20T23:48:29.756Z,101274.69
2022-10-20T23:50:58.253Z,101279.06
2022-10-20T23:53:26.238Z,101286.44
2022-10-20T23:55:54.240Z,101284.09
2022-10-20T23:58:23.332Z,101285.00
